Time;durP1;ratioP1;P1;durP2;ratioP2;P2;SDS_P1;SDS_P2;PMS_P1;PMS_P2;Temp;Humidity;BMP_temperature;BMP_pressure;BME280_temperature;BME280_humidity;BME280_pressure;Samples;Min_cycle;Max_cycle;Signal;HPM_P1;HPM_P2
2023/01/25 07:57:02;;;;;;;7.07;4.38;;;;;;;0.20;100.00;100490.00;5024743;28;20371;-80
2023/01/25 07:59:30;;;;;;;10.75;4.82;;;;;;;0.30;100.00;100498.38;5004273;28;20061;-80
2023/01/25 08:01:57;;;;;;;7.43;4.63;;;;;;;0.43;100.00;100498.53;4998992;28;20124;-81
2023/01/25 08:04:24;;;;;;;14.18;5.72;;;;;;;0.61;100.00;100521.56;5005451;28;20239;-81
2023/01/25 08:06:50;;;;;;;10.48;5.80;;;;;;;0.67;100.00;100523.88;5003883;28;20058;-81
2023/01/25 08:09:19;;;;;;;9.43;5.88;;;;;;;0.64;100.00;100501.81;5003942;28;20054;-81
2023/01/25 08:11:48;;;;;;;8.88;4.65;;;;;;;0.66;100.00;100526.66;4986304;28;20104;-81
2023/01/25 08:14:16;;;;;;;12.05;5.85;;;;;;;0.75;100.00;100514.56;4985268;28;20125;-81
2023/01/25 08:16:43;;;;;;;7.85;4.45;;;;;;;0.68;100.00;100509.56;4985720;28;20540;-81
2023/01/25 08:19:10;;;;;;;9.82;5.32;;;;;;;0.77;100.00;100523.34;4995192;28;20058;-81
2023/01/25 08:21:37;;;;;;;10.30;5.55;;;;;;;0.66;100.00;100507.91;5005159;28;20095;-81
2023/01/25 08:24:06;;;;;;;12.57;6.30;;;;;;;0.64;100.00;100497.31;5004544;28;20492;-81
2023/01/25 08:26:34;;;;;;;12.05;5.95;;;;;;;0.83;100.00;100523.03;5004698;28;20050;-81
2023/01/25 08:29:00;;;;;;;11.88;5.85;;;;;;;0.77;100.00;100515.31;5004155;28;20042;-81
2023/01/25 08:31:31;;;;;;;8.18;4.55;;;;;;;0.83;100.00;100525.69;5004031;28;20069;-81
2023/01/25 08:33:58;;;;;;;8.85;4.82;;;;;;;0.76;100.00;100521.66;5004710;28;20058;-81
2023/01/25 08:36:26;;;;;;;9.70;5.70;;;;;;;0.81;100.00;100504.38;5005411;28;20382;-81
2023/01/25 08:38:55;;;;;;;11.35;5.65;;;;;;;0.81;100.00;100504.38;5005043;27;20488;-81
2023/01/25 08:41:22;;;;;;;14.07;6.63;;;;;;;0.79;100.00;100497.38;5004288;27;20046;-81
2023/01/25 08:43:50;;;;;;;11.27;5.50;;;;;;;0.72;100.00;100487.97;4984596;28;20055;-81
2023/01/25 08:46:17;;;;;;;11.50;5.40;;;;;;;0.80;100.00;100486.56;5000831;27;20065;-81
2023/01/25 08:48:45;;;;;;;10.90;5.85;;;;;;;0.76;100.00;100473.47;4987246;28;20050;-81
2023/01/25 08:51:14;;;;;;;9.70;4.55;;;;;;;0.65;100.00;100466.06;5004634;28;20065;-82
2023/01/25 08:53:41;;;;;;;12.38;5.63;;;;;;;0.69;100.00;100478.28;5004038;28;20069;-81
2023/01/25 08:56:09;;;;;;;9.32;4.63;;;;;;;0.66;100.00;100470.44;5003976;28;20073;-81
2023/01/25 08:58:39;;;;;;;13.50;5.90;;;;;;;0.72;100.00;100467.41;4985305;28;20531;-81
2023/01/25 09:01:07;;;;;;;8.40;4.07;;;;;;;0.72;100.00;100462.06;4986953;28;20053;-81
2023/01/25 09:03:36;;;;;;;11.15;5.13;;;;;;;0.89;100.00;100498.56;5004274;28;20080;-81
2023/01/25 09:06:04;;;;;;;11.25;5.38;;;;;;;0.82;100.00;100484.66;5042974;27;20060;-81
2023/01/25 09:08:31;;;;;;;15.57;6.63;;;;;;;0.97;100.00;100492.75;4990077;28;20413;-81
2023/01/25 09:11:01;;;;;;;10.93;5.38;;;;;;;0.78;100.00;100463.50;4991751;28;20050;-81
2023/01/25 09:13:27;;;;;;;12.27;6.13;;;;;;;0.91;100.00;100480.59;4990876;28;20394;-81
2023/01/25 09:15:59;;;;;;;10.93;5.30;;;;;;;1.01;100.00;100478.22;4991426;28;20072;-81
2023/01/25 09:18:25;;;;;;;9.10;4.55;;;;;;;1.04;100.00;100494.97;4986196;28;20501;-81
2023/01/25 09:20:52;;;;;;;9.77;5.53;;;;;;;0.79;100.00;100481.31;4971884;28;20047;-81
2023/01/25 09:23:22;;;;;;;14.20;6.63;;;;;;;0.77;100.00;100477.84;4984255;28;20624;-81
2023/01/25 09:25:49;;;;;;;9.45;5.25;;;;;;;0.86;100.00;100471.97;4991337;28;20141;-81
2023/01/25 09:28:15;;;;;;;8.98;5.35;;;;;;;0.94;100.00;100483.06;4989181;28;20054;-81
2023/01/25 09:30:42;;;;;;;11.85;7.78;;;;;;;0.84;100.00;100452.44;4983058;28;20054;-81
2023/01/25 09:33:08;;;;;;;12.88;5.95;;;;;;;0.86;100.00;100470.16;4990365;28;20129;-81
2023/01/25 09:35:36;;;;;;;11.38;6.15;;;;;;;0.89;100.00;100469.13;4989950;28;20477;-81
2023/01/25 09:38:02;;;;;;;12.10;6.07;;;;;;;0.93;100.00;100459.06;4991086;28;20054;-81
2023/01/25 09:40:36;;;;;;;10.52;5.40;;;;;;;1.01;100.00;100464.81;4991209;28;20046;-81
2023/01/25 09:43:05;;;;;;;11.00;5.63;;;;;;;0.97;100.00;100472.19;4989180;28;20520;-81
2023/01/25 09:45:34;;;;;;;38.20;17.55;;;;;;;0.84;100.00;100468.50;4980527;28;20501;-81
2023/01/25 09:48:10;;;;;;;13.10;6.07;;;;;;;0.88;100.00;100454.00;4987877;28;20489;-81
2023/01/25 09:50:39;;;;;;;11.55;5.82;;;;;;;0.94;100.00;100474.19;4990823;28;20051;-81
2023/01/25 09:53:31;;;;;;;15.85;6.47;;;;;;;0.98;100.00;100467.69;4979643;28;20053;-81
2023/01/25 09:56:01;;;;;;;11.60;5.90;;;;;;;0.97;100.00;100474.00;4971403;28;20058;-80
2023/01/25 09:58:33;;;;;;;10.85;5.50;;;;;;;1.04;100.00;100470.88;4986774;28;20057;-81
2023/01/25 10:01:14;;;;;;;15.93;6.22;;;;;;;0.90;100.00;100454.75;4990920;28;20050;-81
2023/01/25 10:03:47;;;;;;;12.00;5.45;;;;;;;0.89;100.00;100445.03;5031240;28;20487;-81
2023/01/25 10:06:16;;;;;;;10.15;5.15;;;;;;;0.91;100.00;100439.56;5066906;28;20044;-81
2023/01/25 10:08:49;;;;;;;15.68;6.30;;;;;;;1.12;100.00;100470.41;5093098;28;20171;-81
2023/01/25 10:11:22;;;;;;;8.43;4.70;;;;;;;1.07;100.00;100467.16;4971163;28;20456;-81
2023/01/25 10:13:48;;;;;;;11.50;6.28;;;;;;;0.99;100.00;100469.41;4989841;28;20080;-81
2023/01/25 10:16:23;;;;;;;13.00;5.72;;;;;;;0.73;100.00;100430.81;4990624;28;20053;-81
2023/01/25 10:18:56;;;;;;;14.52;6.22;;;;;;;0.79;100.00;100436.66;4984956;28;20485;-81
2023/01/25 10:21:27;;;;;;;12.27;5.93;;;;;;;0.96;100.00;100451.69;4990269;28;20054;-81
2023/01/25 10:24:24;;;;;;;16.55;6.68;;;;;;;1.14;100.00;100471.16;4989976;28;20077;-81
2023/01/25 10:26:56;;;;;;;13.52;6.28;;;;;;;1.13;100.00;100455.19;4992412;28;20059;-81
2023/01/25 10:29:27;;;;;;;14.38;6.88;;;;;;;1.05;100.00;100451.19;5022663;28;20054;-81
2023/01/25 10:31:55;;;;;;;12.55;6.28;;;;;;;0.93;100.00;100418.91;4970867;28;20482;-81
2023/01/25 10:34:26;;;;;;;11.68;6.50;;;;;;;1.18;100.00;100458.47;4970184;28;20153;-81
2023/01/25 10:36:54;;;;;;;8.45;4.45;;;;;;;0.91;100.00;100424.34;4971055;28;20069;-81
2023/01/25 10:39:22;;;;;;;11.32;5.82;;;;;;;1.00;100.00;100458.59;4970816;28;20058;-81
2023/01/25 10:41:53;;;;;;;12.25;6.20;;;;;;;1.06;100.00;100454.72;4970874;28;20061;-81
2023/01/25 10:44:24;;;;;;;11.25;5.35;;;;;;;1.06;100.00;100439.50;4973696;28;20050;-81
2023/01/25 10:46:59;;;;;;;12.55;5.95;;;;;;;0.92;100.00;100422.53;4982180;28;20088;-80
2023/01/25 10:49:32;;;;;;;12.70;5.60;;;;;;;1.14;100.00;100441.69;4989898;28;20138;-81
2023/01/25 10:52:12;;;;;;;13.80;6.55;;;;;;;1.05;100.00;100444.94;4985277;28;20520;-81
2023/01/25 10:54:39;;;;;;;13.38;6.22;;;;;;;0.91;100.00;100412.78;5083417;28;20052;-81
2023/01/25 10:57:07;;;;;;;12.27;7.15;;;;;;;1.21;100.00;100435.03;5045595;28;20139;-81
2023/01/25 10:59:36;;;;;;;19.55;9.27;;;;;;;1.23;100.00;100429.56;4970437;28;20059;-81
2023/01/25 11:02:38;;;;;;;12.93;6.32;;;;;;;1.24;100.00;100413.41;4987934;28;20050;-81
2023/01/25 11:05:25;;;;;;;13.15;6.68;;;;;;;1.26;100.00;100415.13;4988781;28;20054;-81
2023/01/25 11:07:51;;;;;;;14.48;6.35;;;;;;;1.29;100.00;100422.97;4985896;28;20078;-81
2023/01/25 11:10:29;;;;;;;11.63;5.50;;;;;;;1.13;100.00;100398.94;4989532;28;20502;-81
2023/01/25 11:13:20;;;;;;;12.70;6.78;;;;;;;1.30;100.00;100414.00;4989406;28;20316;-82
2023/01/25 11:15:50;;;;;;;16.17;6.63;;;;;;;1.16;100.00;100390.72;4989701;28;20137;-81
2023/01/25 11:18:20;;;;;;;13.25;6.80;;;;;;;1.22;100.00;100391.22;4977474;28;20774;-81
2023/01/25 11:20:47;;;;;;;16.65;7.63;;;;;;;1.35;100.00;100415.41;4970728;28;20061;-80
2023/01/25 11:23:23;;;;;;;21.05;8.50;;;;;;;1.32;100.00;100393.31;5015947;28;20052;-81
2023/01/25 11:25:50;;;;;;;12.00;6.38;;;;;;;1.30;100.00;100398.78;5041926;28;20506;-81
2023/01/25 11:28:19;;;;;;;11.77;6.30;;;;;;;1.19;100.00;100378.00;5091822;28;20055;-81
2023/01/25 11:30:49;;;;;;;13.10;5.70;;;;;;;1.34;100.00;100394.94;5090267;28;20044;-81
2023/01/25 11:33:18;;;;;;;14.65;6.63;;;;;;;1.33;100.00;100392.38;4979822;28;20501;-81
2023/01/25 11:36:02;;;;;;;13.02;6.43;;;;;;;1.27;100.00;100382.03;4973239;28;20051;-81
2023/01/25 11:38:29;;;;;;;14.25;5.50;;;;;;;1.35;100.00;100375.22;4970219;28;20047;-81
2023/01/25 11:41:10;;;;;;;11.25;5.55;;;;;;;1.30;100.00;100368.44;4986011;28;20058;-81
2023/01/25 11:43:59;;;;;;;11.60;5.72;;;;;;;1.32;100.00;100355.81;4988681;28;20063;-81
2023/01/25 11:46:36;;;;;;;14.38;6.47;;;;;;;1.33;100.00;100352.19;4989257;28;20073;-81
2023/01/25 11:49:25;;;;;;;12.23;6.07;;;;;;;1.15;100.00;100330.94;4975769;28;20050;-81
2023/01/25 11:52:01;;;;;;;12.15;6.18;;;;;;;1.12;100.00;100341.84;4978067;28;20057;-81
2023/01/25 11:54:38;;;;;;;15.90;6.38;;;;;;;1.34;100.00;100343.16;4988835;28;20053;-81
2023/01/25 11:57:15;;;;;;;15.77;5.93;;;;;;;1.33;100.00;100328.06;5017480;28;20052;-81
2023/01/25 12:00:05;;;;;;;14.07;6.50;;;;;;;1.19;100.00;100323.56;5091215;28;20052;-81
2023/01/25 12:03:02;;;;;;;12.15;5.78;;;;;;;1.21;100.00;100322.50;5071142;28;20409;-81
2023/01/25 12:05:48;;;;;;;11.93;5.85;;;;;;;1.16;100.00;100295.16;4988094;28;20113;-81
2023/01/25 12:08:26;;;;;;;17.65;7.40;;;;;;;1.06;100.00;100292.19;4988358;28;20061;-81
2023/01/25 12:11:00;;;;;;;10.52;4.78;;;;;;;1.18;100.00;100306.63;4988104;28;20058;-81
2023/01/25 12:13:39;;;;;;;10.90;5.05;;;;;;;1.09;100.00;100275.06;4990086;28;20137;-81
2023/01/25 12:16:23;;;;;;;16.90;6.75;;;;;;;0.97;100.00;100275.84;5091530;28;20052;-81
2023/01/25 12:19:11;;;;;;;16.70;6.72;;;;;;;1.08;100.00;100275.16;4998793;28;20482;-81
2023/01/25 12:21:55;;;;;;;12.15;6.18;;;;;;;1.16;100.00;100281.78;4988675;28;20416;-82
2023/01/25 12:24:39;;;;;;;14.85;6.63;;;;;;;1.13;100.00;100275.72;4988181;28;20055;-81
2023/01/25 12:27:18;;;;;;;15.30;6.72;;;;;;;1.09;100.00;100263.50;4969736;28;20536;-81
2023/01/25 12:29:47;;;;;;;15.07;7.78;;;;;;;1.06;100.00;100249.34;4987839;28;20059;-81
2023/01/25 12:32:23;;;;;;;16.25;7.05;;;;;;;1.01;100.00;100240.75;4987323;28;20135;-81
2023/01/25 12:34:56;;;;;;;19.33;7.28;;;;;;;0.95;100.00;100241.13;4988675;28;20047;-81
2023/01/25 12:37:32;;;;;;;16.40;6.30;;;;;;;1.12;100.00;100256.13;4988913;28;20409;-81
2023/01/25 12:40:03;;;;;;;18.05;6.82;;;;;;;1.16;100.00;100246.06;4988977;28;20077;-81
2023/01/25 12:42:36;;;;;;;16.10;7.63;;;;;;;1.10;100.00;100214.31;4972308;28;20051;-81
2023/01/25 12:45:10;;;;;;;14.00;7.50;;;;;;;1.22;100.00;100227.78;5010667;28;20105;-81
2023/01/25 12:47:43;;;;;;;15.10;6.63;;;;;;;1.27;100.00;100226.66;5094964;28;20127;-81
2023/01/25 12:50:16;;;;;;;21.17;9.07;;;;;;;1.01;100.00;100203.25;5094499;28;20410;-81
2023/01/25 12:52:49;;;;;;;17.98;7.60;;;;;;;1.19;100.00;100211.94;5094155;28;20044;-81
2023/01/25 12:55:17;;;;;;;15.57;7.50;;;;;;;1.14;100.00;100189.06;5094497;28;20062;-81
2023/01/25 12:57:53;;;;;;;12.95;6.07;;;;;;;1.09;100.00;100189.38;5094640;28;20075;-81
2023/01/25 13:00:25;;;;;;;20.27;8.00;;;;;;;1.13;100.00;100198.06;5038743;28;20052;-81
2023/01/25 13:03:07;;;;;;;12.68;6.38;;;;;;;1.01;100.00;100181.84;5045930;28;20071;-81
2023/01/25 13:05:40;;;;;;;13.05;6.65;;;;;;;1.06;100.00;100186.88;5093370;28;20048;-81
2023/01/25 13:08:26;;;;;;;21.13;7.25;;;;;;;1.18;100.00;100198.63;5094470;28;20051;-81
2023/01/25 13:11:03;;;;;;;14.95;7.30;;;;;;;0.95;100.00;100163.50;5094508;28;20047;-81
2023/01/25 13:13:30;;;;;;;16.10;7.32;;;;;;;1.05;100.00;100167.28;5093785;28;20400;-81
2023/01/25 13:15:56;;;;;;;15.55;6.47;;;;;;;1.04;100.00;100188.81;4997065;28;20123;-81
2023/01/25 13:18:40;;;;;;;18.95;7.38;;;;;;;1.18;100.00;100185.25;4989877;28;20050;-81
2023/01/25 13:21:32;;;;;;;17.42;7.78;;;;;;;1.15;100.00;100177.41;4991526;28;20042;-81
2023/01/25 13:24:14;;;;;;;17.27;8.50;;;;;;;1.16;100.00;100166.59;4991117;28;20054;-81
2023/01/25 13:26:48;;;;;;;17.80;8.05;;;;;;;1.23;100.00;100157.19;4991855;28;20057;-81
2023/01/25 13:29:48;;;;;;;16.45;7.53;;;;;;;1.32;100.00;100149.50;4985047;28;20130;-81
2023/01/25 13:33:02;;;;;;;17.15;7.88;;;;;;;1.55;100.00;100172.97;5027949;28;20054;-81
2023/01/25 13:35:34;;;;;;;17.08;8.43;;;;;;;1.49;100.00;100181.41;4991565;28;20054;-81
2023/01/25 13:38:06;;;;;;;19.27;9.07;;;;;;;1.35;100.00;100160.00;4971856;28;20536;-81
2023/01/25 13:40:35;;;;;;;17.83;8.25;;;;;;;1.45;100.00;100177.22;4972003;28;20129;-81
2023/01/25 13:43:04;;;;;;;17.83;8.02;;;;;;;1.50;100.00;100167.03;4971092;28;20061;-81
2023/01/25 13:45:34;;;;;;;21.87;8.47;;;;;;;1.28;100.00;100134.59;4971144;28;20561;-81
2023/01/25 13:48:06;;;;;;;20.85;10.27;;;;;;;1.34;100.00;100135.06;5059369;28;20059;-81
2023/01/25 13:50:36;;;;;;;19.67;9.00;;;;;;;1.37;100.00;100148.25;5093808;28;20071;-81
2023/01/25 13:53:17;;;;;;;18.38;8.88;;;;;;;1.22;100.00;100130.50;5092885;28;20060;-81
2023/01/25 13:55:46;;;;;;;23.75;9.95;;;;;;;1.20;100.00;100119.03;5093682;28;20051;-81
2023/01/25 13:58:18;;;;;;;20.05;8.43;;;;;;;1.08;100.00;100127.88;5078300;28;20048;-81
2023/01/25 14:00:54;;;;;;;17.30;8.80;;;;;;;1.12;100.00;100129.41;4971653;28;20046;-81
2023/01/25 14:03:25;;;;;;;21.33;9.88;;;;;;;0.95;100.00;100126.00;5027707;28;20046;-81
2023/01/25 14:05:55;;;;;;;21.35;9.85;;;;;;;0.95;100.00;100119.75;4970676;28;20394;-81
2023/01/25 14:08:25;;;;;;;24.40;10.10;;;;;;;1.09;100.00;100134.97;4971352;28;20061;-81
2023/01/25 14:10:53;;;;;;;21.40;9.57;;;;;;;1.18;100.00;100116.44;4971369;28;20145;-81
2023/01/25 14:13:19;;;;;;;21.55;9.05;;;;;;;1.24;100.00;100118.72;4982843;28;20412;-81
2023/01/25 14:15:54;;;;;;;17.65;7.97;;;;;;;1.29;100.00;100147.88;4990531;28;20061;-81
2023/01/25 14:18:22;;;;;;;19.38;9.23;;;;;;;1.23;100.00;100157.19;4990460;28;20056;-81
2023/01/25 14:20:52;;;;;;;22.08;10.45;;;;;;;1.17;100.00;100124.59;4980875;28;20491;-81
2023/01/25 14:23:25;;;;;;;23.60;9.65;;;;;;;1.09;100.00;100114.38;4970263;28;20528;-81
2023/01/25 14:25:53;;;;;;;24.13;9.48;;;;;;;1.27;100.00;100141.78;4971024;28;20241;-81
2023/01/25 14:28:21;;;;;;;30.60;13.02;;;;;;;1.18;100.00;100134.34;5017542;28;20078;-81
2023/01/25 14:30:51;;;;;;;43.50;14.02;;;;;;;1.12;100.00;100111.50;5050330;28;20388;-81
2023/01/25 14:33:22;;;;;;;52.22;18.30;;;;;;;1.19;100.00;100128.88;5092025;28;20100;-81
2023/01/25 14:35:49;;;;;;;23.92;10.07;;;;;;;1.26;100.00;100134.69;5093112;28;20414;-81
2023/01/25 14:38:24;;;;;;;28.45;9.25;;;;;;;1.11;100.00;100106.25;5092483;28;20052;-81
